Nave Cetus — D5DB7 — position and weather

sailwx.info

Track history (hours):
 
Tides and Currents Weather Stations Pressure Air Temp Water Temp Dewpoint Dewpoint Depression Visibility Wind Speed Wind Dir Waves Ship Positions

Nave Cetus

Last reported at 2017-Dec-22 10:37 UTC. Time now 2018-Jan-23 04:21 UTC.
Position N 14°02' W 061°09'.
Warning: this ship's position is 31 days out of date.

Length 228 m; draft 8 m.

Type: Ship (hazmat cat B). MMSI: 636015834.

Date/timePositionNaut miles runAvg speedWind from/ knotsBaromVisibWave heightAir tempDewpointWater temp
2017-Dec-22 10:37N 14°02' W 061°09'212.9
2017-Dec-22 10:30N 14°02' W 061°07'8 0.2
2017-Dec-20 23:56N 14°07' W 061°01'2 0.3
2017-Dec-20 19:22N 14°06' W 060°60'0 0.3
2017-Dec-20 18:54N 14°06' W 060°60'1 3.5
2017-Dec-20 18:31N 14°06' W 061°01'17 8.9
2017-Dec-20 16:35N 14°16' W 061°15'114.6
2017-Dec-20 16:30N 14°17' W 061°16'1914.3
2017-Dec-20 15:10N 14°32' W 061°29'515.0
2017-Dec-20 14:51N 14°35' W 061°32'25414.3
2017-Dec-19 21:06N 18°12' W 063°49'  
2017-Dec-14 06:15N 25°42' W 079°33'513.8
2017-Dec-14 05:54N 25°37' W 079°33'513.6
2017-Dec-14 05:30N 25°32' W 079°33'  
Track history (hours):
 
Tides and Currents Weather Stations Pressure Air Temp Water Temp Dewpoint Dewpoint Depression Visibility Wind Speed Wind Dir Waves Ship Positions

Nave Cetus

Last reported at 2017-Dec-22 10:37 UTC. Time now 2018-Jan-23 04:21 UTC.
Position N 14°02' W 061°09'.
Warning: this ship's position is 31 days out of date.

Length 228 m; draft 8 m.

Type: Ship (hazmat cat B). MMSI: 636015834.

Date/timePositionNaut miles runAvg speedWind from/ knotsBaromVisibWave heightAir tempDewpointWater temp
2017-Dec-22 10:37N 14°02' W 061°09'212.9
2017-Dec-22 10:30N 14°02' W 061°07'8 0.2
2017-Dec-20 23:56N 14°07' W 061°01'2 0.3
2017-Dec-20 19:22N 14°06' W 060°60'0 0.3
2017-Dec-20 18:54N 14°06' W 060°60'1 3.5
2017-Dec-20 18:31N 14°06' W 061°01'17 8.9
2017-Dec-20 16:35N 14°16' W 061°15'114.6
2017-Dec-20 16:30N 14°17' W 061°16'1914.3
2017-Dec-20 15:10N 14°32' W 061°29'515.0
2017-Dec-20 14:51N 14°35' W 061°32'25414.3
2017-Dec-19 21:06N 18°12' W 063°49'  
2017-Dec-14 06:15N 25°42' W 079°33'513.8
2017-Dec-14 05:54N 25°37' W 079°33'513.6
2017-Dec-14 05:30N 25°32' W 079°33'  

Dump ship's entire track history